sensor_id;sensor_type;location;lat;lon;timestamp;P1;durP1;ratioP1;P2;durP2;ratioP2
28158;SDS011;15447;50.828;4.406;2023-10-09T05:32:54;25.60;;;12.23;;
28158;SDS011;15447;50.828;4.406;2023-10-09T05:35:23;22.60;;;11.50;;
28158;SDS011;15447;50.828;4.406;2023-10-09T05:38:04;20.70;;;11.20;;
28158;SDS011;15447;50.828;4.406;2023-10-09T05:40:48;19.23;;;11.77;;
28158;SDS011;15447;50.828;4.406;2023-10-09T05:43:18;26.52;;;11.00;;
28158;SDS011;15447;50.828;4.406;2023-10-09T05:46:05;23.88;;;11.43;;
28158;SDS011;15447;50.828;4.406;2023-10-09T05:48:34;23.17;;;12.15;;
28158;SDS011;15447;50.828;4.406;2023-10-09T05:51:03;22.25;;;12.25;;
28158;SDS011;15447;50.828;4.406;2023-10-09T05:53:37;20.88;;;11.23;;
28158;SDS011;15447;50.828;4.406;2023-10-09T05:56:09;20.88;;;10.90;;
28158;SDS011;15447;50.828;4.406;2023-10-09T05:58:54;25.55;;;11.55;;
28158;SDS011;15447;50.828;4.406;2023-10-09T06:01:31;22.00;;;10.57;;
28158;SDS011;15447;50.828;4.406;2023-10-09T06:04:15;21.50;;;11.18;;
28158;SDS011;15447;50.828;4.406;2023-10-09T06:06:42;22.00;;;11.45;;
28158;SDS011;15447;50.828;4.406;2023-10-09T06:09:10;19.52;;;10.73;;
28158;SDS011;15447;50.828;4.406;2023-10-09T06:11:39;20.77;;;10.73;;
28158;SDS011;15447;50.828;4.406;2023-10-09T06:14:17;22.58;;;11.32;;
28158;SDS011;15447;50.828;4.406;2023-10-09T06:16:52;22.20;;;11.27;;
28158;SDS011;15447;50.828;4.406;2023-10-09T06:19:21;22.38;;;12.10;;
28158;SDS011;15447;50.828;4.406;2023-10-09T06:21:47;25.08;;;12.32;;
28158;SDS011;15447;50.828;4.406;2023-10-09T06:24:31;23.80;;;11.50;;
28158;SDS011;15447;50.828;4.406;2023-10-09T06:27:31;25.92;;;11.85;;
28158;SDS011;15447;50.828;4.406;2023-10-09T06:29:58;26.43;;;12.33;;
28158;SDS011;15447;50.828;4.406;2023-10-09T06:32:42;27.38;;;13.18;;
28158;SDS011;15447;50.828;4.406;2023-10-09T06:35:37;21.60;;;11.60;;
28158;SDS011;15447;50.828;4.406;2023-10-09T06:38:04;30.27;;;13.43;;
28158;SDS011;15447;50.828;4.406;2023-10-09T06:40:50;21.50;;;12.07;;
28158;SDS011;15447;50.828;4.406;2023-10-09T06:43:36;28.65;;;13.02;;
28158;SDS011;15447;50.828;4.406;2023-10-09T06:46:14;27.20;;;13.20;;
28158;SDS011;15447;50.828;4.406;2023-10-09T06:48:55;24.70;;;12.23;;
28158;SDS011;15447;50.828;4.406;2023-10-09T06:51:28;34.40;;;13.05;;
28158;SDS011;15447;50.828;4.406;2023-10-09T06:53:55;26.40;;;13.65;;
28158;SDS011;15447;50.828;4.406;2023-10-09T06:56:25;28.30;;;13.40;;
28158;SDS011;15447;50.828;4.406;2023-10-09T06:59:02;31.48;;;12.98;;
28158;SDS011;15447;50.828;4.406;2023-10-09T07:01:46;33.80;;;13.57;;
28158;SDS011;15447;50.828;4.406;2023-10-09T07:04:16;29.80;;;12.52;;
28158;SDS011;15447;50.828;4.406;2023-10-09T07:06:45;27.17;;;13.00;;
28158;SDS011;15447;50.828;4.406;2023-10-09T07:09:12;25.15;;;12.75;;
28158;SDS011;15447;50.828;4.406;2023-10-09T07:11:39;30.35;;;12.73;;
28158;SDS011;15447;50.828;4.406;2023-10-09T07:14:08;29.25;;;13.63;;
28158;SDS011;15447;50.828;4.406;2023-10-09T07:16:55;24.67;;;13.02;;
28158;SDS011;15447;50.828;4.406;2023-10-09T07:19:29;26.40;;;12.50;;
28158;SDS011;15447;50.828;4.406;2023-10-09T07:22:02;26.33;;;12.98;;
28158;SDS011;15447;50.828;4.406;2023-10-09T07:24:31;27.85;;;13.50;;
28158;SDS011;15447;50.828;4.406;2023-10-09T07:27:11;27.35;;;13.43;;
28158;SDS011;15447;50.828;4.406;2023-10-09T07:29:38;24.33;;;12.20;;
28158;SDS011;15447;50.828;4.406;2023-10-09T07:32:14;28.20;;;12.25;;
28158;SDS011;15447;50.828;4.406;2023-10-09T07:34:52;32.33;;;14.10;;
28158;SDS011;15447;50.828;4.406;2023-10-09T07:37:18;26.88;;;13.10;;
28158;SDS011;15447;50.828;4.406;2023-10-09T07:39:55;23.95;;;12.88;;
28158;SDS011;15447;50.828;4.406;2023-10-09T07:42:24;27.23;;;13.60;;
28158;SDS011;15447;50.828;4.406;2023-10-09T07:45:00;26.45;;;12.75;;
28158;SDS011;15447;50.828;4.406;2023-10-09T07:47:36;27.98;;;12.57;;
28158;SDS011;15447;50.828;4.406;2023-10-09T07:50:26;30.17;;;12.98;;
28158;SDS011;15447;50.828;4.406;2023-10-09T07:53:13;27.60;;;12.45;;
28158;SDS011;15447;50.828;4.406;2023-10-09T07:56:05;29.27;;;12.65;;
28158;SDS011;15447;50.828;4.406;2023-10-09T07:58:33;23.50;;;11.63;;
28158;SDS011;15447;50.828;4.406;2023-10-09T08:01:11;22.95;;;11.57;;
28158;SDS011;15447;50.828;4.406;2023-10-09T08:04:06;21.80;;;11.23;;
28158;SDS011;15447;50.828;4.406;2023-10-09T08:06:38;24.83;;;11.88;;
28158;SDS011;15447;50.828;4.406;2023-10-09T08:09:10;22.30;;;12.50;;
28158;SDS011;15447;50.828;4.406;2023-10-09T08:11:44;20.77;;;10.88;;
28158;SDS011;15447;50.828;4.406;2023-10-09T08:14:39;23.05;;;11.73;;
28158;SDS011;15447;50.828;4.406;2023-10-09T08:17:06;22.73;;;12.80;;
28158;SDS011;15447;50.828;4.406;2023-10-09T08:19:41;26.10;;;12.32;;
28158;SDS011;15447;50.828;4.406;2023-10-09T08:22:36;21.77;;;12.23;;
28158;SDS011;15447;50.828;4.406;2023-10-09T08:25:08;24.73;;;12.33;;
28158;SDS011;15447;50.828;4.406;2023-10-09T08:27:55;23.60;;;11.95;;
28158;SDS011;15447;50.828;4.406;2023-10-09T08:30:23;24.98;;;11.90;;
28158;SDS011;15447;50.828;4.406;2023-10-09T08:32:49;20.25;;;12.23;;
28158;SDS011;15447;50.828;4.406;2023-10-09T08:35:48;27.60;;;12.85;;
28158;SDS011;15447;50.828;4.406;2023-10-09T08:38:14;24.67;;;12.07;;
28158;SDS011;15447;50.828;4.406;2023-10-09T08:40:48;22.50;;;11.38;;
28158;SDS011;15447;50.828;4.406;2023-10-09T08:43:16;20.38;;;10.55;;
28158;SDS011;15447;50.828;4.406;2023-10-09T08:45:49;24.15;;;11.90;;
28158;SDS011;15447;50.828;4.406;2023-10-09T08:48:19;23.17;;;11.98;;
28158;SDS011;15447;50.828;4.406;2023-10-09T08:50:49;22.05;;;11.85;;
28158;SDS011;15447;50.828;4.406;2023-10-09T08:53:16;24.60;;;11.82;;
28158;SDS011;15447;50.828;4.406;2023-10-09T08:55:42;23.63;;;12.50;;
28158;SDS011;15447;50.828;4.406;2023-10-09T08:58:09;25.40;;;12.15;;
28158;SDS011;15447;50.828;4.406;2023-10-09T09:00:43;26.08;;;11.90;;
28158;SDS011;15447;50.828;4.406;2023-10-09T09:03:14;25.40;;;12.27;;
28158;SDS011;15447;50.828;4.406;2023-10-09T09:05:58;23.15;;;12.02;;
28158;SDS011;15447;50.828;4.406;2023-10-09T09:08:31;24.08;;;12.15;;
28158;SDS011;15447;50.828;4.406;2023-10-09T09:13:37;23.02;;;11.52;;
28158;SDS011;15447;50.828;4.406;2023-10-09T09:16:29;23.33;;;12.07;;
28158;SDS011;15447;50.828;4.406;2023-10-09T09:19:00;23.42;;;11.75;;
28158;SDS011;15447;50.828;4.406;2023-10-09T09:21:33;23.45;;;11.93;;
28158;SDS011;15447;50.828;4.406;2023-10-09T09:24:10;26.25;;;12.10;;
28158;SDS011;15447;50.828;4.406;2023-10-09T09:26:40;24.13;;;11.77;;
28158;SDS011;15447;50.828;4.406;2023-10-09T09:29:12;21.40;;;11.93;;
28158;SDS011;15447;50.828;4.406;2023-10-09T09:31:51;25.90;;;13.02;;
28158;SDS011;15447;50.828;4.406;2023-10-09T09:34:18;25.45;;;11.65;;
28158;SDS011;15447;50.828;4.406;2023-10-09T09:36:50;22.80;;;12.10;;
28158;SDS011;15447;50.828;4.406;2023-10-09T09:39:25;26.52;;;12.25;;
28158;SDS011;15447;50.828;4.406;2023-10-09T09:41:58;22.13;;;12.70;;
28158;SDS011;15447;50.828;4.406;2023-10-09T09:44:33;25.42;;;13.57;;
28158;SDS011;15447;50.828;4.406;2023-10-09T09:47:08;28.20;;;12.80;;
28158;SDS011;15447;50.828;4.406;2023-10-09T09:49:41;24.48;;;12.65;;
28158;SDS011;15447;50.828;4.406;2023-10-09T09:52:08;30.92;;;12.95;;
28158;SDS011;15447;50.828;4.406;2023-10-09T09:54:38;23.05;;;12.27;;
28158;SDS011;15447;50.828;4.406;2023-10-09T09:57:04;22.77;;;12.18;;
28158;SDS011;15447;50.828;4.406;2023-10-09T09:59:39;23.35;;;12.70;;
28158;SDS011;15447;50.828;4.406;2023-10-09T10:02:07;26.77;;;12.52;;
28158;SDS011;15447;50.828;4.406;2023-10-09T10:04:42;24.15;;;11.50;;
28158;SDS011;15447;50.828;4.406;2023-10-09T10:07:09;20.15;;;11.73;;
28158;SDS011;15447;50.828;4.406;2023-10-09T10:09:38;19.88;;;11.80;;
28158;SDS011;15447;50.828;4.406;2023-10-09T10:12:05;22.35;;;12.10;;
28158;SDS011;15447;50.828;4.406;2023-10-09T10:17:24;24.33;;;12.48;;
28158;SDS011;15447;50.828;4.406;2023-10-09T10:20:07;23.30;;;11.35;;
28158;SDS011;15447;50.828;4.406;2023-10-09T10:22:42;20.80;;;12.05;;
28158;SDS011;15447;50.828;4.406;2023-10-09T10:30:47;21.77;;;10.90;;
28158;SDS011;15447;50.828;4.406;2023-10-09T10:33:16;26.40;;;12.25;;
28158;SDS011;15447;50.828;4.406;2023-10-09T10:35:41;25.38;;;12.70;;
28158;SDS011;15447;50.828;4.406;2023-10-09T10:38:24;25.20;;;11.68;;
28158;SDS011;15447;50.828;4.406;2023-10-09T10:41:17;23.40;;;11.90;;
28158;SDS011;15447;50.828;4.406;2023-10-09T10:43:47;20.40;;;11.75;;
28158;SDS011;15447;50.828;4.406;2023-10-09T10:46:19;22.92;;;11.40;;
28158;SDS011;15447;50.828;4.406;2023-10-09T10:48:55;19.58;;;11.05;;
28158;SDS011;15447;50.828;4.406;2023-10-09T10:51:41;20.27;;;11.25;;
28158;SDS011;15447;50.828;4.406;2023-10-09T10:54:19;22.13;;;12.23;;
28158;SDS011;15447;50.828;4.406;2023-10-09T10:56:53;22.38;;;11.75;;
28158;SDS011;15447;50.828;4.406;2023-10-09T10:59:22;18.48;;;11.20;;
28158;SDS011;15447;50.828;4.406;2023-10-09T11:01:50;23.88;;;11.88;;
28158;SDS011;15447;50.828;4.406;2023-10-09T11:04:28;21.42;;;11.75;;
28158;SDS011;15447;50.828;4.406;2023-10-09T11:07:00;21.23;;;12.20;;
28158;SDS011;15447;50.828;4.406;2023-10-09T11:09:46;18.35;;;10.93;;
28158;SDS011;15447;50.828;4.406;2023-10-09T11:12:31;24.27;;;11.35;;
28158;SDS011;15447;50.828;4.406;2023-10-09T11:18:22;28.58;;;11.55;;
28158;SDS011;15447;50.828;4.406;2023-10-09T11:20:52;21.70;;;10.98;;
28158;SDS011;15447;50.828;4.406;2023-10-09T11:23:28;24.58;;;10.77;;
28158;SDS011;15447;50.828;4.406;2023-10-09T11:26:04;29.63;;;11.07;;
28158;SDS011;15447;50.828;4.406;2023-10-09T11:34:30;18.40;;;9.73;;
28158;SDS011;15447;50.828;4.406;2023-10-09T11:37:15;19.20;;;10.00;;
28158;SDS011;15447;50.828;4.406;2023-10-09T11:39:40;19.35;;;9.95;;
28158;SDS011;15447;50.828;4.406;2023-10-09T11:42:17;17.08;;;9.65;;
28158;SDS011;15447;50.828;4.406;2023-10-09T11:45:06;22.75;;;10.25;;
28158;SDS011;15447;50.828;4.406;2023-10-09T11:47:49;21.60;;;10.02;;
28158;SDS011;15447;50.828;4.406;2023-10-09T11:53:19;20.70;;;10.50;;
28158;SDS011;15447;50.828;4.406;2023-10-09T11:55:47;21.13;;;10.65;;
28158;SDS011;15447;50.828;4.406;2023-10-09T11:58:14;20.00;;;10.40;;
28158;SDS011;15447;50.828;4.406;2023-10-09T12:00:50;21.15;;;10.30;;
28158;SDS011;15447;50.828;4.406;2023-10-09T12:03:17;18.40;;;10.50;;
28158;SDS011;15447;50.828;4.406;2023-10-09T12:05:46;21.83;;;11.13;;
28158;SDS011;15447;50.828;4.406;2023-10-09T12:08:20;16.80;;;10.55;;
28158;SDS011;15447;50.828;4.406;2023-10-09T12:10:47;26.38;;;11.20;;
28158;SDS011;15447;50.828;4.406;2023-10-09T12:13:16;24.20;;;10.27;;
28158;SDS011;15447;50.828;4.406;2023-10-09T12:15:41;18.13;;;10.15;;
28158;SDS011;15447;50.828;4.406;2023-10-09T12:18:14;20.13;;;10.63;;
28158;SDS011;15447;50.828;4.406;2023-10-09T12:20:40;20.40;;;10.52;;
28158;SDS011;15447;50.828;4.406;2023-10-09T12:23:07;17.17;;;10.23;;
28158;SDS011;15447;50.828;4.406;2023-10-09T12:25:36;16.67;;;9.75;;
28158;SDS011;15447;50.828;4.406;2023-10-09T12:28:02;18.73;;;10.23;;
28158;SDS011;15447;50.828;4.406;2023-10-09T12:30:28;18.92;;;10.38;;
28158;SDS011;15447;50.828;4.406;2023-10-09T12:32:58;20.50;;;10.57;;
28158;SDS011;15447;50.828;4.406;2023-10-09T12:35:24;19.75;;;10.35;;
28158;SDS011;15447;50.828;4.406;2023-10-09T12:37:53;21.25;;;10.68;;
28158;SDS011;15447;50.828;4.406;2023-10-09T12:40:23;19.50;;;10.45;;
28158;SDS011;15447;50.828;4.406;2023-10-09T12:42:56;21.33;;;10.38;;
28158;SDS011;15447;50.828;4.406;2023-10-09T12:45:25;20.80;;;10.27;;
28158;SDS011;15447;50.828;4.406;2023-10-09T12:47:52;18.30;;;9.68;;
28158;SDS011;15447;50.828;4.406;2023-10-09T12:52:56;19.48;;;10.25;;
28158;SDS011;15447;50.828;4.406;2023-10-09T12:55:26;20.75;;;10.10;;
28158;SDS011;15447;50.828;4.406;2023-10-09T13:00:26;25.98;;;10.50;;
28158;SDS011;15447;50.828;4.406;2023-10-09T13:02:52;17.13;;;9.15;;
28158;SDS011;15447;50.828;4.406;2023-10-09T13:05:23;18.85;;;9.60;;
28158;SDS011;15447;50.828;4.406;2023-10-09T13:07:52;17.90;;;9.77;;
28158;SDS011;15447;50.828;4.406;2023-10-09T13:10:19;23.38;;;10.68;;
28158;SDS011;15447;50.828;4.406;2023-10-09T13:12:45;22.30;;;9.50;;
28158;SDS011;15447;50.828;4.406;2023-10-09T13:15:20;21.20;;;10.18;;
28158;SDS011;15447;50.828;4.406;2023-10-09T13:17:46;20.58;;;10.40;;
28158;SDS011;15447;50.828;4.406;2023-10-09T13:20:12;24.40;;;11.60;;
28158;SDS011;15447;50.828;4.406;2023-10-09T13:22:38;19.17;;;10.48;;
28158;SDS011;15447;50.828;4.406;2023-10-09T13:25:06;22.38;;;9.45;;
28158;SDS011;15447;50.828;4.406;2023-10-09T13:27:43;20.05;;;10.00;;
28158;SDS011;15447;50.828;4.406;2023-10-09T13:30:15;20.58;;;9.73;;
28158;SDS011;15447;50.828;4.406;2023-10-09T13:32:47;21.52;;;9.95;;
28158;SDS011;15447;50.828;4.406;2023-10-09T13:35:14;19.95;;;9.20;;
28158;SDS011;15447;50.828;4.406;2023-10-09T13:37:44;19.38;;;9.75;;
28158;SDS011;15447;50.828;4.406;2023-10-09T13:40:21;25.48;;;9.75;;
28158;SDS011;15447;50.828;4.406;2023-10-09T13:42:54;19.05;;;10.32;;
28158;SDS011;15447;50.828;4.406;2023-10-09T13:45:27;15.85;;;10.25;;
28158;SDS011;15447;50.828;4.406;2023-10-09T13:47:56;19.40;;;9.77;;
28158;SDS011;15447;50.828;4.406;2023-10-09T13:50:25;24.20;;;10.77;;
28158;SDS011;15447;50.828;4.406;2023-10-09T13:53:00;19.20;;;10.30;;
28158;SDS011;15447;50.828;4.406;2023-10-09T13:55:36;21.10;;;10.65;;
28158;SDS011;15447;50.828;4.406;2023-10-09T13:58:08;21.83;;;10.77;;
28158;SDS011;15447;50.828;4.406;2023-10-09T14:00:41;29.95;;;12.13;;
28158;SDS011;15447;50.828;4.406;2023-10-09T14:03:11;22.90;;;10.50;;
28158;SDS011;15447;50.828;4.406;2023-10-09T14:05:38;24.45;;;10.48;;
28158;SDS011;15447;50.828;4.406;2023-10-09T14:08:23;22.88;;;11.40;;
28158;SDS011;15447;50.828;4.406;2023-10-09T14:10:51;23.77;;;10.68;;
28158;SDS011;15447;50.828;4.406;2023-10-09T14:13:16;20.77;;;10.77;;
28158;SDS011;15447;50.828;4.406;2023-10-09T14:15:51;19.45;;;10.75;;
28158;SDS011;15447;50.828;4.406;2023-10-09T14:18:19;27.88;;;11.55;;
28158;SDS011;15447;50.828;4.406;2023-10-09T14:20:45;21.45;;;10.48;;
28158;SDS011;15447;50.828;4.406;2023-10-09T14:23:11;23.83;;;11.50;;
28158;SDS011;15447;50.828;4.406;2023-10-09T14:25:45;23.73;;;11.57;;
28158;SDS011;15447;50.828;4.406;2023-10-09T14:28:14;22.15;;;11.20;;
28158;SDS011;15447;50.828;4.406;2023-10-09T14:30:46;24.02;;;11.85;;
28158;SDS011;15447;50.828;4.406;2023-10-09T14:33:24;21.73;;;11.40;;
28158;SDS011;15447;50.828;4.406;2023-10-09T14:35:52;24.90;;;12.02;;
28158;SDS011;15447;50.828;4.406;2023-10-09T14:38:20;21.10;;;11.88;;
28158;SDS011;15447;50.828;4.406;2023-10-09T14:40:52;25.20;;;12.68;;
28158;SDS011;15447;50.828;4.406;2023-10-09T14:43:22;30.67;;;12.40;;
28158;SDS011;15447;50.828;4.406;2023-10-09T14:45:53;26.30;;;11.68;;
28158;SDS011;15447;50.828;4.406;2023-10-09T14:48:22;22.08;;;11.95;;
28158;SDS011;15447;50.828;4.406;2023-10-09T14:50:53;23.48;;;11.18;;
28158;SDS011;15447;50.828;4.406;2023-10-09T14:53:20;25.15;;;12.40;;
28158;SDS011;15447;50.828;4.406;2023-10-09T14:55:47;21.98;;;11.48;;
28158;SDS011;15447;50.828;4.406;2023-10-09T14:58:22;24.95;;;12.52;;
28158;SDS011;15447;50.828;4.406;2023-10-09T15:00:51;23.42;;;11.95;;
28158;SDS011;15447;50.828;4.406;2023-10-09T15:03:16;28.52;;;12.30;;
28158;SDS011;15447;50.828;4.406;2023-10-09T15:05:44;22.42;;;12.30;;
28158;SDS011;15447;50.828;4.406;2023-10-09T15:08:18;26.88;;;12.50;;
28158;SDS011;15447;50.828;4.406;2023-10-09T15:14:10;26.13;;;12.32;;
28158;SDS011;15447;50.828;4.406;2023-10-09T15:16:35;26.20;;;13.73;;
28158;SDS011;15447;50.828;4.406;2023-10-09T15:19:04;21.67;;;11.85;;
28158;SDS011;15447;50.828;4.406;2023-10-09T15:21:30;26.92;;;12.52;;
28158;SDS011;15447;50.828;4.406;2023-10-09T15:23:58;29.98;;;13.57;;
28158;SDS011;15447;50.828;4.406;2023-10-09T15:26:24;24.02;;;11.95;;
28158;SDS011;15447;50.828;4.406;2023-10-09T15:28:51;25.90;;;11.68;;
28158;SDS011;15447;50.828;4.406;2023-10-09T15:31:19;24.58;;;12.27;;
28158;SDS011;15447;50.828;4.406;2023-10-09T15:33:54;24.00;;;13.18;;
28158;SDS011;15447;50.828;4.406;2023-10-09T15:36:41;24.08;;;13.02;;
28158;SDS011;15447;50.828;4.406;2023-10-09T15:39:07;29.17;;;13.05;;
28158;SDS011;15447;50.828;4.406;2023-10-09T15:41:36;24.58;;;13.02;;
28158;SDS011;15447;50.828;4.406;2023-10-09T15:44:04;26.38;;;13.23;;
28158;SDS011;15447;50.828;4.406;2023-10-09T15:46:37;29.48;;;13.48;;
28158;SDS011;15447;50.828;4.406;2023-10-09T15:49:06;23.05;;;12.57;;
28158;SDS011;15447;50.828;4.406;2023-10-09T15:51:34;27.70;;;12.38;;
28158;SDS011;15447;50.828;4.406;2023-10-09T15:54:03;25.77;;;12.07;;
28158;SDS011;15447;50.828;4.406;2023-10-09T15:56:29;25.73;;;12.60;;
28158;SDS011;15447;50.828;4.406;2023-10-09T15:58:54;24.95;;;12.02;;
28158;SDS011;15447;50.828;4.406;2023-10-09T16:01:21;24.77;;;12.07;;
28158;SDS011;15447;50.828;4.406;2023-10-09T16:03:47;24.80;;;13.48;;
28158;SDS011;15447;50.828;4.406;2023-10-09T16:06:13;21.75;;;10.63;;
28158;SDS011;15447;50.828;4.406;2023-10-09T16:08:45;22.30;;;12.27;;
28158;SDS011;15447;50.828;4.406;2023-10-09T16:11:21;20.40;;;11.52;;
28158;SDS011;15447;50.828;4.406;2023-10-09T16:13:50;18.48;;;11.35;;
28158;SDS011;15447;50.828;4.406;2023-10-09T16:16:28;20.33;;;12.23;;
28158;SDS011;15447;50.828;4.406;2023-10-09T16:18:55;22.55;;;12.50;;
28158;SDS011;15447;50.828;4.406;2023-10-09T16:21:25;20.95;;;12.45;;
28158;SDS011;15447;50.828;4.406;2023-10-09T16:23:51;28.42;;;13.57;;
28158;SDS011;15447;50.828;4.406;2023-10-09T16:26:19;33.38;;;13.30;;
28158;SDS011;15447;50.828;4.406;2023-10-09T16:28:49;28.15;;;13.10;;
28158;SDS011;15447;50.828;4.406;2023-10-09T16:31:16;23.90;;;13.43;;
28158;SDS011;15447;50.828;4.406;2023-10-09T16:33:47;25.42;;;13.15;;
28158;SDS011;15447;50.828;4.406;2023-10-09T16:36:13;24.83;;;13.50;;
28158;SDS011;15447;50.828;4.406;2023-10-09T16:38:39;31.60;;;13.60;;
28158;SDS011;15447;50.828;4.406;2023-10-09T16:41:05;24.15;;;12.98;;
28158;SDS011;15447;50.828;4.406;2023-10-09T16:43:37;28.20;;;13.15;;
28158;SDS011;15447;50.828;4.406;2023-10-09T16:46:06;26.48;;;13.18;;
28158;SDS011;15447;50.828;4.406;2023-10-09T16:48:35;26.23;;;14.00;;
28158;SDS011;15447;50.828;4.406;2023-10-09T16:51:04;23.33;;;12.95;;
28158;SDS011;15447;50.828;4.406;2023-10-09T16:53:37;22.50;;;13.13;;
28158;SDS011;15447;50.828;4.406;2023-10-09T16:56:07;22.90;;;13.13;;
28158;SDS011;15447;50.828;4.406;2023-10-09T16:58:38;25.45;;;13.77;;
28158;SDS011;15447;50.828;4.406;2023-10-09T17:01:07;24.70;;;12.90;;
28158;SDS011;15447;50.828;4.406;2023-10-09T17:03:37;24.85;;;13.73;;
28158;SDS011;15447;50.828;4.406;2023-10-09T17:06:07;28.90;;;14.65;;
28158;SDS011;15447;50.828;4.406;2023-10-09T17:08:37;26.10;;;11.73;;
28158;SDS011;15447;50.828;4.406;2023-10-09T17:11:07;24.38;;;11.98;;
28158;SDS011;15447;50.828;4.406;2023-10-09T17:13:36;24.75;;;11.68;;
28158;SDS011;15447;50.828;4.406;2023-10-09T17:16:02;29.98;;;12.05;;
28158;SDS011;15447;50.828;4.406;2023-10-09T17:18:41;26.83;;;12.43;;
28158;SDS011;15447;50.828;4.406;2023-10-09T17:21:18;27.33;;;12.35;;
28158;SDS011;15447;50.828;4.406;2023-10-09T17:23:48;22.85;;;12.27;;
28158;SDS011;15447;50.828;4.406;2023-10-09T17:26:23;21.40;;;11.25;;
28158;SDS011;15447;50.828;4.406;2023-10-09T17:28:52;26.23;;;11.10;;
28158;SDS011;15447;50.828;4.406;2023-10-09T17:31:18;24.35;;;11.88;;
28158;SDS011;15447;50.828;4.406;2023-10-09T17:33:45;21.23;;;11.07;;
28158;SDS011;15447;50.828;4.406;2023-10-09T17:36:12;29.15;;;11.77;;
28158;SDS011;15447;50.828;4.406;2023-10-09T17:38:41;23.10;;;12.00;;
28158;SDS011;15447;50.828;4.406;2023-10-09T17:41:07;23.58;;;12.05;;
28158;SDS011;15447;50.828;4.406;2023-10-09T17:43:36;22.27;;;10.50;;
28158;SDS011;15447;50.828;4.406;2023-10-09T17:46:02;24.10;;;11.70;;
28158;SDS011;15447;50.828;4.406;2023-10-09T17:48:31;24.00;;;11.07;;
28158;SDS011;15447;50.828;4.406;2023-10-09T17:50:59;30.50;;;10.80;;
28158;SDS011;15447;50.828;4.406;2023-10-09T17:53:25;19.65;;;11.18;;
28158;SDS011;15447;50.828;4.406;2023-10-09T17:55:55;20.27;;;11.02;;
28158;SDS011;15447;50.828;4.406;2023-10-09T17:58:26;20.45;;;10.23;;
28158;SDS011;15447;50.828;4.406;2023-10-09T18:00:54;23.20;;;10.57;;
28158;SDS011;15447;50.828;4.406;2023-10-09T18:03:23;24.23;;;11.25;;
28158;SDS011;15447;50.828;4.406;2023-10-09T18:05:55;23.33;;;11.25;;
28158;SDS011;15447;50.828;4.406;2023-10-09T18:08:28;20.33;;;10.15;;
28158;SDS011;15447;50.828;4.406;2023-10-09T18:10:54;22.13;;;10.73;;
28158;SDS011;15447;50.828;4.406;2023-10-09T18:13:26;25.00;;;11.05;;
28158;SDS011;15447;50.828;4.406;2023-10-09T18:16:07;21.40;;;10.32;;
28158;SDS011;15447;50.828;4.406;2023-10-09T18:18:42;24.88;;;11.60;;
28158;SDS011;15447;50.828;4.406;2023-10-09T18:21:11;25.38;;;10.95;;
28158;SDS011;15447;50.828;4.406;2023-10-09T18:23:44;23.35;;;10.95;;
28158;SDS011;15447;50.828;4.406;2023-10-09T18:26:11;20.70;;;10.88;;
28158;SDS011;15447;50.828;4.406;2023-10-09T18:31:41;29.48;;;10.65;;
28158;SDS011;15447;50.828;4.406;2023-10-09T18:34:14;21.05;;;10.48;;
28158;SDS011;15447;50.828;4.406;2023-10-09T18:36:40;19.30;;;9.48;;
28158;SDS011;15447;50.828;4.406;2023-10-09T18:39:12;22.17;;;11.05;;
28158;SDS011;15447;50.828;4.406;2023-10-09T18:41:39;19.95;;;10.65;;
28158;SDS011;15447;50.828;4.406;2023-10-09T18:44:09;23.63;;;10.77;;
28158;SDS011;15447;50.828;4.406;2023-10-09T18:46:35;25.90;;;11.93;;
28158;SDS011;15447;50.828;4.406;2023-10-09T18:49:02;26.20;;;11.90;;
28158;SDS011;15447;50.828;4.406;2023-10-09T18:51:28;22.58;;;11.02;;
28158;SDS011;15447;50.828;4.406;2023-10-09T18:53:55;19.35;;;10.70;;
28158;SDS011;15447;50.828;4.406;2023-10-09T18:56:25;19.15;;;10.05;;
28158;SDS011;15447;50.828;4.406;2023-10-09T18:58:53;18.67;;;9.98;;
28158;SDS011;15447;50.828;4.406;2023-10-09T19:01:19;20.75;;;10.32;;
28158;SDS011;15447;50.828;4.406;2023-10-09T19:03:44;21.33;;;10.13;;
28158;SDS011;15447;50.828;4.406;2023-10-09T19:06:14;21.58;;;10.40;;
28158;SDS011;15447;50.828;4.406;2023-10-09T19:08:42;19.98;;;9.85;;
28158;SDS011;15447;50.828;4.406;2023-10-09T19:11:09;17.55;;;10.98;;
28158;SDS011;15447;50.828;4.406;2023-10-09T19:13:38;18.65;;;10.52;;
28158;SDS011;15447;50.828;4.406;2023-10-09T19:16:05;23.10;;;10.57;;
28158;SDS011;15447;50.828;4.406;2023-10-09T19:18:32;23.95;;;11.85;;
28158;SDS011;15447;50.828;4.406;2023-10-09T19:21:09;25.17;;;12.05;;
28158;SDS011;15447;50.828;4.406;2023-10-09T19:23:36;21.40;;;12.18;;
28158;SDS011;15447;50.828;4.406;2023-10-09T19:26:04;24.83;;;11.90;;
28158;SDS011;15447;50.828;4.406;2023-10-09T19:28:30;22.25;;;12.25;;
28158;SDS011;15447;50.828;4.406;2023-10-09T19:31:12;21.60;;;11.60;;
28158;SDS011;15447;50.828;4.406;2023-10-09T19:33:41;23.20;;;11.93;;
28158;SDS011;15447;50.828;4.406;2023-10-09T19:36:07;23.52;;;12.27;;
28158;SDS011;15447;50.828;4.406;2023-10-09T19:38:47;28.35;;;13.32;;
28158;SDS011;15447;50.828;4.406;2023-10-09T19:41:16;24.65;;;11.23;;
28158;SDS011;15447;50.828;4.406;2023-10-09T19:43:49;23.42;;;11.63;;
28158;SDS011;15447;50.828;4.406;2023-10-09T19:46:16;29.30;;;13.77;;
28158;SDS011;15447;50.828;4.406;2023-10-09T19:48:42;21.73;;;11.90;;
28158;SDS011;15447;50.828;4.406;2023-10-09T19:51:11;22.02;;;12.25;;
28158;SDS011;15447;50.828;4.406;2023-10-09T19:53:42;30.52;;;14.30;;
28158;SDS011;15447;50.828;4.406;2023-10-09T19:56:08;26.83;;;13.48;;
28158;SDS011;15447;50.828;4.406;2023-10-09T19:58:35;24.02;;;11.75;;
28158;SDS011;15447;50.828;4.406;2023-10-09T20:01:11;23.58;;;11.45;;
28158;SDS011;15447;50.828;4.406;2023-10-09T20:03:41;25.95;;;11.25;;
28158;SDS011;15447;50.828;4.406;2023-10-09T20:06:09;20.02;;;11.18;;
28158;SDS011;15447;50.828;4.406;2023-10-09T20:08:35;21.00;;;10.50;;
28158;SDS011;15447;50.828;4.406;2023-10-09T20:11:07;16.15;;;10.13;;
28158;SDS011;15447;50.828;4.406;2023-10-09T20:13:34;23.77;;;11.23;;
28158;SDS011;15447;50.828;4.406;2023-10-09T20:16:01;22.63;;;11.77;;
28158;SDS011;15447;50.828;4.406;2023-10-09T20:18:27;23.83;;;11.25;;
28158;SDS011;15447;50.828;4.406;2023-10-09T20:21:08;26.85;;;12.73;;
28158;SDS011;15447;50.828;4.406;2023-10-09T20:23:40;23.52;;;12.20;;
28158;SDS011;15447;50.828;4.406;2023-10-09T20:26:06;24.55;;;11.68;;
28158;SDS011;15447;50.828;4.406;2023-10-09T20:28:32;23.25;;;12.05;;
28158;SDS011;15447;50.828;4.406;2023-10-09T20:31:02;21.33;;;11.50;;
28158;SDS011;15447;50.828;4.406;2023-10-09T20:33:29;23.77;;;11.93;;
28158;SDS011;15447;50.828;4.406;2023-10-09T20:36:04;18.73;;;11.00;;
28158;SDS011;15447;50.828;4.406;2023-10-09T20:38:40;21.27;;;11.38;;
28158;SDS011;15447;50.828;4.406;2023-10-09T20:41:09;18.70;;;11.40;;
28158;SDS011;15447;50.828;4.406;2023-10-09T20:43:35;21.25;;;11.32;;
28158;SDS011;15447;50.828;4.406;2023-10-09T20:46:04;21.75;;;12.38;;
28158;SDS011;15447;50.828;4.406;2023-10-09T20:48:30;19.40;;;11.38;;
28158;SDS011;15447;50.828;4.406;2023-10-09T20:50:56;22.65;;;11.38;;
28158;SDS011;15447;50.828;4.406;2023-10-09T20:53:35;18.70;;;11.13;;
28158;SDS011;15447;50.828;4.406;2023-10-09T20:56:21;19.73;;;10.93;;